createdAt,value
2022-08-17T00:02:32.150Z,21.11
2022-08-17T00:05:44.996Z,21.10
2022-08-17T00:09:00.150Z,21.01
2022-08-17T00:12:51.162Z,20.96
2022-08-17T00:15:26.489Z,20.90
2022-08-17T00:18:53.808Z,20.86
2022-08-17T00:22:33.972Z,20.81
2022-08-17T00:25:22.578Z,20.77
2022-08-17T00:28:24.516Z,20.72
2022-08-17T00:31:27.813Z,20.71
2022-08-17T00:34:29.815Z,20.68
2022-08-17T00:37:35.073Z,20.65
2022-08-17T00:40:44.899Z,20.61
2022-08-17T00:43:50.718Z,20.56
2022-08-17T00:46:52.703Z,20.51
2022-08-17T00:49:54.711Z,20.44
2022-08-17T00:52:58.162Z,20.45
2022-08-17T00:56:02.850Z,20.45
2022-08-17T00:59:07.595Z,20.46
2022-08-17T01:02:14.444Z,20.49
2022-08-17T01:05:23.964Z,20.52
2022-08-17T01:08:29.628Z,20.56
2022-08-17T01:11:33.109Z,20.62
2022-08-17T01:14:35.170Z,20.68
2022-08-17T01:17:37.200Z,20.76
2022-08-17T01:20:47.891Z,20.82
2022-08-17T01:23:50.745Z,20.90
2022-08-17T01:26:52.684Z,20.95
2022-08-17T01:30:02.802Z,21.00
2022-08-17T01:33:04.767Z,21.06
2022-08-17T01:36:07.891Z,21.09
2022-08-17T01:39:16.537Z,21.13
2022-08-17T01:43:03.737Z,21.17
2022-08-17T01:46:06.131Z,21.14
2022-08-17T01:49:09.101Z,21.10
2022-08-17T01:52:12.770Z,21.15
2022-08-17T01:55:17.628Z,21.19
2022-08-17T01:58:20.445Z,21.24
2022-08-17T02:01:27.012Z,21.28
2022-08-17T02:04:29.468Z,21.29
2022-08-17T02:07:31.458Z,21.32
2022-08-17T02:10:34.370Z,21.36
2022-08-17T02:13:38.042Z,21.41
2022-08-17T02:16:41.150Z,21.43
2022-08-17T02:19:43.245Z,21.42
2022-08-17T02:22:47.581Z,21.36
2022-08-17T02:25:49.890Z,21.31
2022-08-17T02:28:51.645Z,21.26
2022-08-17T02:31:53.661Z,21.26
2022-08-17T02:34:57.094Z,21.17
2022-08-17T02:37:59.124Z,21.08
2022-08-17T02:41:01.094Z,21.01
2022-08-17T02:44:04.445Z,20.97
2022-08-17T02:47:07.965Z,20.94
2022-08-17T02:50:11.995Z,20.91
2022-08-17T02:53:14.078Z,20.82
2022-08-17T02:56:16.083Z,20.76
2022-08-17T02:59:18.077Z,20.68
2022-08-17T03:02:19.944Z,20.64
2022-08-17T03:05:23.699Z,20.62
2022-08-17T03:08:25.828Z,20.59
2022-08-17T03:11:28.018Z,20.48
2022-08-17T03:14:32.299Z,20.49
2022-08-17T03:17:34.237Z,20.52
2022-08-17T03:20:37.076Z,20.55
2022-08-17T03:23:41.244Z,20.58
2022-08-17T03:26:43.637Z,20.59
2022-08-17T03:29:45.844Z,20.55
2022-08-17T03:32:50.517Z,20.56
2022-08-17T03:35:53.620Z,20.53
2022-08-17T03:38:55.572Z,20.53
2022-08-17T03:42:08.441Z,20.49
2022-08-17T03:45:48.931Z,20.57
2022-08-17T03:49:12.268Z,20.62
2022-08-17T03:52:33.755Z,20.66
2022-08-17T03:55:55.819Z,20.69
2022-08-17T03:58:57.727Z,20.78
2022-08-17T04:02:09.662Z,20.82
2022-08-17T04:05:11.598Z,20.87
2022-08-17T04:08:13.622Z,20.91
2022-08-17T04:11:15.516Z,20.92
2022-08-17T04:14:17.586Z,21.02
2022-08-17T04:17:20.182Z,21.11
2022-08-17T04:20:24.258Z,21.21
2022-08-17T04:23:32.759Z,21.29
2022-08-17T04:26:52.801Z,21.41
2022-08-17T04:29:56.358Z,21.51
2022-08-17T04:33:05.866Z,21.62
2022-08-17T04:36:09.053Z,21.77
2022-08-17T04:39:11.392Z,21.95
2022-08-17T04:42:17.452Z,22.20
2022-08-17T04:45:19.501Z,22.44
2022-08-17T04:48:22.024Z,22.69
2022-08-17T04:51:31.081Z,22.91
2022-08-17T04:54:33.014Z,23.07
2022-08-17T04:57:39.435Z,23.26
2022-08-17T05:00:44.100Z,23.63
2022-08-17T05:03:45.996Z,24.04
2022-08-17T05:06:49.563Z,24.38
2022-08-17T05:09:51.482Z,24.73
2022-08-17T05:13:11.953Z,25.19
2022-08-17T05:16:20.170Z,25.61
2022-08-17T05:19:22.124Z,26.05
2022-08-17T05:22:24.037Z,26.40
2022-08-17T05:25:36.202Z,26.67
2022-08-17T05:28:39.303Z,26.93
2022-08-17T05:31:45.009Z,27.15
2022-08-17T05:34:50.904Z,27.22
2022-08-17T05:37:53.651Z,27.31
2022-08-17T05:41:02.500Z,27.45
2022-08-17T05:44:05.305Z,27.56
2022-08-17T05:47:09.919Z,27.62
2022-08-17T05:50:34.031Z,27.76
2022-08-17T05:54:05.305Z,27.88
2022-08-17T05:57:49.702Z,28.04
2022-08-17T06:01:02.291Z,28.22
2022-08-17T06:04:32.701Z,28.02
2022-08-17T06:07:56.133Z,27.90
2022-08-17T06:11:00.786Z,27.81
2022-08-17T06:14:22.763Z,28.14
2022-08-17T06:17:27.270Z,28.46
2022-08-17T06:20:38.534Z,28.70
2022-08-17T06:23:50.767Z,28.88
2022-08-17T06:26:55.485Z,28.91
2022-08-17T06:30:15.886Z,29.06
2022-08-17T06:33:22.383Z,29.18
2022-08-17T06:37:00.605Z,29.37
2022-08-17T06:40:19.697Z,29.56
2022-08-17T06:43:48.634Z,29.69
2022-08-17T06:46:56.340Z,29.75
2022-08-17T06:50:08.347Z,29.69
2022-08-17T06:53:25.565Z,29.92
2022-08-17T06:56:58.482Z,30.23
2022-08-17T07:00:16.698Z,30.23
2022-08-17T07:03:49.943Z,30.06
2022-08-17T07:07:01.833Z,30.12
2022-08-17T07:10:03.880Z,30.33
2022-08-17T07:13:33.846Z,30.59
2022-08-17T07:16:45.577Z,30.62
2022-08-17T07:19:51.386Z,30.66
2022-08-17T07:23:00.695Z,30.72
2022-08-17T07:26:07.846Z,30.76
2022-08-17T07:29:14.342Z,30.87
2022-08-17T07:32:23.456Z,30.59
2022-08-17T07:35:43.948Z,30.88
2022-08-17T07:38:57.707Z,31.22
2022-08-17T07:42:04.631Z,31.52
2022-08-17T07:45:27.896Z,31.22
2022-08-17T07:48:35.210Z,31.21
2022-08-17T07:51:37.693Z,31.10
2022-08-17T07:54:42.372Z,30.91
2022-08-17T07:57:59.353Z,30.72
2022-08-17T08:01:17.866Z,30.48
2022-08-17T08:04:59.126Z,30.32
2022-08-17T08:08:22.856Z,30.62
2022-08-17T08:11:35.359Z,30.96
2022-08-17T08:14:39.538Z,31.32
2022-08-17T08:18:03.858Z,31.48
2022-08-17T08:21:47.723Z,31.52
2022-08-17T08:25:23.340Z,31.65
2022-08-17T08:28:49.468Z,31.81
2022-08-17T08:32:05.647Z,32.19
2022-08-17T08:35:23.152Z,32.49
2022-08-17T08:39:00.618Z,32.67
2022-08-17T08:42:17.840Z,32.98
2022-08-17T08:45:22.927Z,33.26
2022-08-17T08:48:58.450Z,33.47
2022-08-17T08:52:03.721Z,33.60
2022-08-17T08:55:13.946Z,33.79
2022-08-17T08:58:31.510Z,34.06
2022-08-17T09:02:12.558Z,34.06
2022-08-17T09:05:30.114Z,34.15
2022-08-17T09:08:44.014Z,34.30
2022-08-17T09:12:05.161Z,34.32
2022-08-17T09:15:19.020Z,34.54
2022-08-17T09:19:00.954Z,34.75
2022-08-17T09:21:58.626Z,34.95
2022-08-17T09:25:12.709Z,34.90
2022-08-17T09:28:27.414Z,35.06
2022-08-17T09:31:48.797Z,35.09
2022-08-17T09:34:56.169Z,35.29
2022-08-17T09:38:04.826Z,35.37
2022-08-17T09:41:16.768Z,35.36
2022-08-17T09:44:43.193Z,35.28
2022-08-17T09:48:19.372Z,35.26
2022-08-17T09:51:33.649Z,35.38
2022-08-17T09:54:40.370Z,35.51
2022-08-17T09:58:18.048Z,35.49
2022-08-17T10:01:43.759Z,35.51
2022-08-17T10:04:56.501Z,35.60
2022-08-17T10:08:12.461Z,35.53
2022-08-17T10:11:48.192Z,35.56
2022-08-17T10:14:55.240Z,35.59
2022-08-17T10:18:11.449Z,35.62
2022-08-17T10:21:37.396Z,35.49
2022-08-17T10:25:23.886Z,35.47
2022-08-17T10:28:33.148Z,35.41
2022-08-17T10:31:46.662Z,35.43
2022-08-17T10:35:14.867Z,35.18
2022-08-17T10:38:49.047Z,35.23
2022-08-17T10:41:56.733Z,35.19
2022-08-17T10:45:17.630Z,35.33
2022-08-17T10:48:38.326Z,35.52
2022-08-17T10:51:42.101Z,35.48
2022-08-17T10:54:48.419Z,35.51
2022-08-17T10:57:50.599Z,35.61
2022-08-17T11:00:55.812Z,35.50
2022-08-17T11:04:21.322Z,35.58
2022-08-17T11:07:32.438Z,35.68
2022-08-17T11:11:09.946Z,35.26
2022-08-17T11:14:36.050Z,35.52
2022-08-17T11:18:15.753Z,35.63
2022-08-17T11:21:57.575Z,35.52
2022-08-17T11:25:14.677Z,35.66
2022-08-17T11:28:21.608Z,35.58
2022-08-17T11:31:37.810Z,35.55
2022-08-17T11:34:44.692Z,35.26
2022-08-17T11:38:02.981Z,34.99
2022-08-17T11:41:27.594Z,34.93
2022-08-17T11:44:56.600Z,35.01
2022-08-17T11:48:31.034Z,35.15
2022-08-17T11:52:01.621Z,35.21
2022-08-17T11:55:31.872Z,35.40
2022-08-17T11:58:29.727Z,35.36
2022-08-17T12:01:33.022Z,35.38
2022-08-17T12:04:36.101Z,35.58
2022-08-17T12:07:51.983Z,35.50
2022-08-17T12:11:55.381Z,35.48
2022-08-17T12:15:10.755Z,35.58
2022-08-17T12:18:24.612Z,35.50
2022-08-17T12:21:40.535Z,35.34
2022-08-17T12:24:50.650Z,35.34
2022-08-17T12:28:05.324Z,35.32
2022-08-17T12:31:35.675Z,35.33
2022-08-17T12:34:41.135Z,35.33
2022-08-17T12:37:47.173Z,35.34
2022-08-17T12:40:58.136Z,35.42
2022-08-17T12:44:04.408Z,35.43
2022-08-17T12:47:21.603Z,35.50
2022-08-17T12:50:29.662Z,35.54
2022-08-17T12:53:35.903Z,35.56
2022-08-17T12:56:38.240Z,35.44
2022-08-17T12:59:43.568Z,35.29
2022-08-17T13:02:55.110Z,35.03
2022-08-17T13:06:01.083Z,35.04
2022-08-17T13:09:36.092Z,34.92
2022-08-17T13:12:43.020Z,34.79
2022-08-17T13:15:54.756Z,34.73
2022-08-17T13:19:15.151Z,34.68
2022-08-17T13:22:18.768Z,34.70
2022-08-17T13:25:20.731Z,34.70
2022-08-17T13:28:35.772Z,34.75
2022-08-17T13:31:52.089Z,34.69
2022-08-17T13:35:14.237Z,34.59
2022-08-17T13:38:48.433Z,34.50
2022-08-17T13:41:53.111Z,34.48
2022-08-17T13:44:55.017Z,34.52
2022-08-17T13:48:11.881Z,34.64
2022-08-17T13:51:29.864Z,34.74
2022-08-17T13:54:36.933Z,34.66
2022-08-17T13:57:38.894Z,34.66
2022-08-17T14:00:41.045Z,34.79
2022-08-17T14:03:44.334Z,34.97
2022-08-17T14:06:54.619Z,35.04
2022-08-17T14:10:05.468Z,34.96
2022-08-17T14:13:08.196Z,34.87
2022-08-17T14:16:10.057Z,34.72
2022-08-17T14:19:14.225Z,34.50
2022-08-17T14:22:27.935Z,34.28
2022-08-17T14:25:32.472Z,34.21
2022-08-17T14:28:36.549Z,34.22
2022-08-17T14:31:39.091Z,34.33
2022-08-17T14:34:40.987Z,34.32
2022-08-17T14:37:45.779Z,34.48
2022-08-17T14:40:48.396Z,34.64
2022-08-17T14:43:53.021Z,34.72
2022-08-17T14:46:55.009Z,34.78
2022-08-17T14:49:57.794Z,34.76
2022-08-17T14:53:01.535Z,34.78
2022-08-17T14:56:04.030Z,34.62
2022-08-17T14:59:06.040Z,34.54
2022-08-17T15:02:08.313Z,34.54
2022-08-17T15:05:10.422Z,34.49
2022-08-17T15:08:12.727Z,34.32
2022-08-17T15:11:18.192Z,34.25
2022-08-17T15:14:20.321Z,34.14
2022-08-17T15:17:22.420Z,34.01
2022-08-17T15:20:28.208Z,33.89
2022-08-17T15:23:30.420Z,33.75
2022-08-17T15:26:32.845Z,33.62
2022-08-17T15:29:34.749Z,33.50
2022-08-17T15:32:38.843Z,33.42
2022-08-17T15:35:41.229Z,33.29
2022-08-17T15:38:44.475Z,33.20
2022-08-17T15:41:47.434Z,33.09
2022-08-17T15:45:06.964Z,33.00
2022-08-17T15:48:09.792Z,32.88
2022-08-17T15:51:17.630Z,32.76
2022-08-17T15:54:22.832Z,32.57
2022-08-17T15:57:26.435Z,32.41
2022-08-17T16:00:29.558Z,32.27
2022-08-17T16:03:58.129Z,32.17
2022-08-17T16:06:54.707Z,32.00
2022-08-17T16:09:57.616Z,31.93
2022-08-17T16:12:59.687Z,31.75
2022-08-17T16:16:01.864Z,31.61
2022-08-17T16:19:04.083Z,31.43
2022-08-17T16:22:08.812Z,31.22
2022-08-17T16:25:18.883Z,31.07
2022-08-17T16:28:35.938Z,30.90
2022-08-17T16:31:38.735Z,30.74
2022-08-17T16:34:41.870Z,30.54
2022-08-17T16:37:45.594Z,30.40
2022-08-17T16:40:47.766Z,30.24
2022-08-17T16:43:49.856Z,30.05
2022-08-17T16:46:51.794Z,29.86
2022-08-17T16:49:53.869Z,29.71
2022-08-17T16:53:03.743Z,29.56
2022-08-17T16:56:07.283Z,29.42
2022-08-17T16:59:29.944Z,29.26
2022-08-17T17:02:39.482Z,29.12
2022-08-17T17:05:51.448Z,28.98
2022-08-17T17:09:02.652Z,28.86
2022-08-17T17:12:12.507Z,29.00
2022-08-17T17:15:18.807Z,29.13
2022-08-17T17:18:35.580Z,29.31
2022-08-17T17:21:43.812Z,29.17
2022-08-17T17:25:01.388Z,29.23
2022-08-17T17:28:28.540Z,29.21
2022-08-17T17:31:56.880Z,29.19
2022-08-17T17:35:16.764Z,29.14
2022-08-17T17:38:24.346Z,29.05
2022-08-17T17:41:44.942Z,29.02
2022-08-17T17:44:53.735Z,28.90
2022-08-17T17:47:56.305Z,28.79
2022-08-17T17:52:06.928Z,28.55
2022-08-17T17:55:05.351Z,28.38
2022-08-17T17:58:35.626Z,28.40
2022-08-17T18:01:55.006Z,28.36
2022-08-17T18:05:08.737Z,28.32
2022-08-17T18:08:19.772Z,28.25
2022-08-17T18:11:25.127Z,28.10
2022-08-17T18:14:38.171Z,28.10
2022-08-17T18:18:01.223Z,28.09
2022-08-17T18:21:14.909Z,28.10
2022-08-17T18:24:31.383Z,27.99
2022-08-17T18:27:37.460Z,28.02
2022-08-17T18:30:39.521Z,28.04
2022-08-17T18:33:46.139Z,28.06
2022-08-17T18:36:49.162Z,27.96
2022-08-17T18:39:51.069Z,27.96
2022-08-17T18:42:59.732Z,28.01
2022-08-17T18:46:33.193Z,27.95
2022-08-17T18:49:38.611Z,27.94
2022-08-17T18:52:40.587Z,27.94
2022-08-17T18:55:42.912Z,27.95
2022-08-17T18:59:05.424Z,27.88
2022-08-17T19:02:28.238Z,27.82
2022-08-17T19:05:42.942Z,27.70
2022-08-17T19:08:45.176Z,27.58
2022-08-17T19:11:47.245Z,27.63
2022-08-17T19:14:52.657Z,27.62
2022-08-17T19:18:02.750Z,27.65
2022-08-17T19:21:19.909Z,27.67
2022-08-17T19:24:31.765Z,27.65
2022-08-17T19:27:49.215Z,27.62
2022-08-17T19:31:04.110Z,27.43
2022-08-17T19:34:07.914Z,27.34
2022-08-17T19:37:10.271Z,27.32
2022-08-17T19:40:54.399Z,27.24
2022-08-17T19:44:17.041Z,27.25
2022-08-17T19:47:54.885Z,27.21
2022-08-17T19:51:41.233Z,27.18
2022-08-17T19:55:09.766Z,27.17
2022-08-17T19:58:49.840Z,27.17
2022-08-17T20:02:27.918Z,27.08
2022-08-17T20:06:08.866Z,27.03
2022-08-17T20:09:22.205Z,26.96
2022-08-17T20:12:29.467Z,26.86
2022-08-17T20:15:35.602Z,26.79
2022-08-17T20:18:44.400Z,26.67
2022-08-17T20:22:11.913Z,26.58
2022-08-17T20:25:30.699Z,26.40
2022-08-17T20:28:38.264Z,26.33
2022-08-17T20:31:46.267Z,26.26
2022-08-17T20:34:50.623Z,26.21
2022-08-17T20:38:02.221Z,26.23
2022-08-17T20:41:04.386Z,26.19
2022-08-17T20:44:09.282Z,26.24
2022-08-17T20:47:27.040Z,26.29
2022-08-17T20:50:38.721Z,26.21
2022-08-17T20:53:49.824Z,26.17
2022-08-17T20:57:00.500Z,26.13
2022-08-17T21:00:19.416Z,26.01
2022-08-17T21:03:24.056Z,25.89
2022-08-17T21:06:26.400Z,25.72
2022-08-17T21:09:30.082Z,25.63
2022-08-17T21:13:13.426Z,25.57
2022-08-17T21:16:39.744Z,25.47
2022-08-17T21:20:08.168Z,25.34
2022-08-17T21:23:30.800Z,25.34
2022-08-17T21:26:50.293Z,25.26
2022-08-17T21:30:15.256Z,25.16
2022-08-17T21:33:21.218Z,25.09
2022-08-17T21:36:25.964Z,25.09
2022-08-17T21:39:38.999Z,25.11
2022-08-17T21:43:23.515Z,25.17
2022-08-17T21:46:29.743Z,25.18
2022-08-17T21:49:31.639Z,25.17
2022-08-17T21:52:40.625Z,25.19
2022-08-17T21:55:42.668Z,25.21
2022-08-17T21:58:48.526Z,25.13
2022-08-17T22:02:19.942Z,24.83
2022-08-17T22:05:30.384Z,24.50
2022-08-17T22:08:37.061Z,24.22
2022-08-17T22:11:52.863Z,24.03
2022-08-17T22:15:00.725Z,23.83
2022-08-17T22:18:05.987Z,23.66
2022-08-17T22:21:09.059Z,23.54
2022-08-17T22:24:25.019Z,23.40
2022-08-17T22:27:49.675Z,23.19
2022-08-17T22:31:06.715Z,23.07
2022-08-17T22:34:14.461Z,23.01
2022-08-17T22:37:27.452Z,22.90
2022-08-17T22:40:32.555Z,22.81
2022-08-17T22:43:39.110Z,22.76
2022-08-17T22:46:59.551Z,22.69
2022-08-17T22:50:05.139Z,22.60
2022-08-17T22:53:36.330Z,22.56
2022-08-17T22:57:04.416Z,22.48
2022-08-17T23:00:37.633Z,22.41
2022-08-17T23:03:54.456Z,22.39
2022-08-17T23:06:56.323Z,22.32
2022-08-17T23:10:00.292Z,22.27
2022-08-17T23:13:02.321Z,22.22
2022-08-17T23:16:04.679Z,22.16
2022-08-17T23:19:08.502Z,22.11
2022-08-17T23:22:11.294Z,22.05
2022-08-17T23:25:17.658Z,22.00
2022-08-17T23:28:23.499Z,21.93
2022-08-17T23:31:25.938Z,21.87
2022-08-17T23:34:28.717Z,21.78
2022-08-17T23:37:31.501Z,21.67
2022-08-17T23:40:33.655Z,21.62
2022-08-17T23:43:36.436Z,21.56
2022-08-17T23:46:38.908Z,21.53
2022-08-17T23:49:42.132Z,21.52
2022-08-17T23:52:46.738Z,21.49
2022-08-17T23:55:48.678Z,21.45
2022-08-17T23:59:11.761Z,21.41
